sensor_id;sensor_type;location;lat;lon;timestamp;pressure;altitude;pressure_sealevel;temperature;humidity
9141;BME280;46330;50.822;7.126;2022-08-07T00:00:23;101884.22;;;14.32;59.11
9141;BME280;46330;50.822;7.126;2022-08-07T00:02:52;101883.50;;;14.23;59.45
9141;BME280;46330;50.822;7.126;2022-08-07T00:05:21;101885.28;;;14.22;60.18
9141;BME280;46330;50.822;7.126;2022-08-07T00:07:51;101884.34;;;14.25;60.09
9141;BME280;46330;50.822;7.126;2022-08-07T00:10:28;101884.50;;;14.14;60.28
9141;BME280;46330;50.822;7.126;2022-08-07T00:12:59;101880.97;;;14.15;60.18
9141;BME280;46330;50.822;7.126;2022-08-07T00:15:43;101882.03;;;14.04;61.23
9141;BME280;46330;50.822;7.126;2022-08-07T00:18:19;101871.72;;;13.88;61.89
9141;BME280;46330;50.822;7.126;2022-08-07T00:20:51;101876.94;;;13.91;62.24
9141;BME280;46330;50.822;7.126;2022-08-07T00:23:21;101877.81;;;13.89;62.42
9141;BME280;46330;50.822;7.126;2022-08-07T00:25:49;101867.38;;;13.84;62.21
9141;BME280;46330;50.822;7.126;2022-08-07T00:28:33;101874.50;;;13.75;62.05
9141;BME280;46330;50.822;7.126;2022-08-07T00:31:11;101872.88;;;13.66;61.55
9141;BME280;46330;50.822;7.126;2022-08-07T00:33:43;101872.75;;;13.74;61.28
9141;BME280;46330;50.822;7.126;2022-08-07T00:36:13;101863.19;;;13.68;61.46
9141;BME280;46330;50.822;7.126;2022-08-07T00:38:44;101861.44;;;13.69;61.32
9141;BME280;46330;50.822;7.126;2022-08-07T00:41:11;101858.84;;;13.64;61.11
9141;BME280;46330;50.822;7.126;2022-08-07T00:43:41;101862.47;;;13.57;61.27
9141;BME280;46330;50.822;7.126;2022-08-07T00:46:29;101858.97;;;13.57;61.74
9141;BME280;46330;50.822;7.126;2022-08-07T00:48:58;101850.16;;;13.58;62.00
9141;BME280;46330;50.822;7.126;2022-08-07T00:51:28;101858.88;;;13.63;62.41
9141;BME280;46330;50.822;7.126;2022-08-07T00:54:18;101855.38;;;13.62;62.75
9141;BME280;46330;50.822;7.126;2022-08-07T00:56:48;101853.66;;;13.58;62.20
9141;BME280;46330;50.822;7.126;2022-08-07T00:59:17;101844.91;;;13.58;62.09
9141;BME280;46330;50.822;7.126;2022-08-07T01:02:03;101848.47;;;13.54;63.30
9141;BME280;46330;50.822;7.126;2022-08-07T01:04:40;101841.53;;;13.45;63.25
9141;BME280;46330;50.822;7.126;2022-08-07T01:07:09;101844.25;;;13.39;63.88
9141;BME280;46330;50.822;7.126;2022-08-07T01:09:40;101837.25;;;13.39;63.75
9141;BME280;46330;50.822;7.126;2022-08-07T01:12:29;101839.03;;;13.37;64.06
9141;BME280;46330;50.822;7.126;2022-08-07T01:14:58;101846.88;;;13.40;63.60
9141;BME280;46330;50.822;7.126;2022-08-07T01:17:31;101842.59;;;13.32;64.35
9141;BME280;46330;50.822;7.126;2022-08-07T01:20:04;101845.34;;;13.23;65.09
9141;BME280;46330;50.822;7.126;2022-08-07T01:22:36;101840.16;;;13.17;65.84
9141;BME280;46330;50.822;7.126;2022-08-07T01:25:24;101837.59;;;13.06;65.58
9141;BME280;46330;50.822;7.126;2022-08-07T01:28:13;101843.69;;;13.11;66.30
9141;BME280;46330;50.822;7.126;2022-08-07T01:30:42;101838.47;;;13.08;66.15
9141;BME280;46330;50.822;7.126;2022-08-07T01:33:13;101835.00;;;13.03;66.84
9141;BME280;46330;50.822;7.126;2022-08-07T01:35:42;101832.44;;;12.97;66.66
9141;BME280;46330;50.822;7.126;2022-08-07T01:38:23;101827.34;;;12.79;67.24
9141;BME280;46330;50.822;7.126;2022-08-07T01:41:00;101833.53;;;12.72;68.24
9141;BME280;46330;50.822;7.126;2022-08-07T01:43:29;101830.88;;;12.76;68.45
9141;BME280;46330;50.822;7.126;2022-08-07T01:46:04;101837.94;;;12.70;68.98
9141;BME280;46330;50.822;7.126;2022-08-07T01:48:39;101828.34;;;12.66;69.36
9141;BME280;46330;50.822;7.126;2022-08-07T01:51:18;101829.31;;;12.57;70.15
9141;BME280;46330;50.822;7.126;2022-08-07T01:54:10;101826.63;;;12.62;69.57
9141;BME280;46330;50.822;7.126;2022-08-07T01:57:04;101831.84;;;12.65;69.31
9141;BME280;46330;50.822;7.126;2022-08-07T01:59:40;101825.81;;;12.57;70.45
9141;BME280;46330;50.822;7.126;2022-08-07T02:02:15;101832.00;;;12.48;70.97
9141;BME280;46330;50.822;7.126;2022-08-07T02:05:07;101829.44;;;12.40;71.32
9141;BME280;46330;50.822;7.126;2022-08-07T02:08:00;101832.06;;;12.36;71.78
9141;BME280;46330;50.822;7.126;2022-08-07T02:10:38;101833.03;;;12.26;72.33
9141;BME280;46330;50.822;7.126;2022-08-07T02:13:09;101837.47;;;12.19;72.42
9141;BME280;46330;50.822;7.126;2022-08-07T02:15:48;101835.72;;;12.15;73.35
9141;BME280;46330;50.822;7.126;2022-08-07T02:18:20;101841.00;;;12.14;73.39
9141;BME280;46330;50.822;7.126;2022-08-07T02:20:56;101836.63;;;12.11;73.16
9141;BME280;46330;50.822;7.126;2022-08-07T02:23:33;101845.31;;;12.18;73.51
9141;BME280;46330;50.822;7.126;2022-08-07T02:26:06;101841.00;;;12.12;72.90
9141;BME280;46330;50.822;7.126;2022-08-07T02:28:56;101837.47;;;12.15;72.76
9141;BME280;46330;50.822;7.126;2022-08-07T02:31:26;101833.13;;;12.12;73.24
9141;BME280;46330;50.822;7.126;2022-08-07T02:33:56;101830.53;;;12.06;73.96
9141;BME280;46330;50.822;7.126;2022-08-07T02:36:41;101835.81;;;12.03;73.60
9141;BME280;46330;50.822;7.126;2022-08-07T02:39:16;101826.22;;;11.98;73.76
9141;BME280;46330;50.822;7.126;2022-08-07T02:42:07;101834.13;;;11.92;74.15
9141;BME280;46330;50.822;7.126;2022-08-07T02:44:45;101837.66;;;11.89;74.00
9141;BME280;46330;50.822;7.126;2022-08-07T02:47:20;101829.81;;;11.83;73.29
9141;BME280;46330;50.822;7.126;2022-08-07T02:49:52;101828.91;;;11.84;72.55
9141;BME280;46330;50.822;7.126;2022-08-07T02:52:32;101831.56;;;11.81;72.23
9141;BME280;46330;50.822;7.126;2022-08-07T02:55:11;101827.25;;;11.72;71.80
9141;BME280;46330;50.822;7.126;2022-08-07T02:58:02;101827.19;;;11.80;72.75
9141;BME280;46330;50.822;7.126;2022-08-07T03:00:33;101830.72;;;11.68;72.60
9141;BME280;46330;50.822;7.126;2022-08-07T03:03:08;101829.00;;;11.73;73.22
9141;BME280;46330;50.822;7.126;2022-08-07T03:05:42;101819.38;;;11.65;72.48
9141;BME280;46330;50.822;7.126;2022-08-07T03:08:13;101822.84;;;11.68;72.25
9141;BME280;46330;50.822;7.126;2022-08-07T03:10:45;101825.50;;;11.67;72.88
9141;BME280;46330;50.822;7.126;2022-08-07T03:13:21;101830.75;;;11.73;73.21
9141;BME280;46330;50.822;7.126;2022-08-07T03:15:52;101822.91;;;11.70;72.36
9141;BME280;46330;50.822;7.126;2022-08-07T03:18:26;101826.41;;;11.52;72.63
9141;BME280;46330;50.822;7.126;2022-08-07T03:21:03;101827.31;;;11.50;73.32
9141;BME280;46330;50.822;7.126;2022-08-07T03:23:37;101824.69;;;11.54;73.06
9141;BME280;46330;50.822;7.126;2022-08-07T03:26:29;101829.06;;;11.48;73.28
9141;BME280;46330;50.822;7.126;2022-08-07T03:29:05;101819.44;;;11.51;72.95
9141;BME280;46330;50.822;7.126;2022-08-07T03:31:39;101824.69;;;11.47;73.07
9141;BME280;46330;50.822;7.126;2022-08-07T03:34:16;101828.22;;;11.38;73.60
9141;BME280;46330;50.822;7.126;2022-08-07T03:36:53;101823.91;;;11.23;74.08
9141;BME280;46330;50.822;7.126;2022-08-07T03:39:25;101822.16;;;11.15;74.75
9141;BME280;46330;50.822;7.126;2022-08-07T03:42:16;101820.44;;;11.14;75.09
9141;BME280;46330;50.822;7.126;2022-08-07T03:44:48;101817.81;;;11.17;75.29
9141;BME280;46330;50.822;7.126;2022-08-07T03:47:20;101830.03;;;11.19;75.04
9141;BME280;46330;50.822;7.126;2022-08-07T03:49:54;101823.06;;;11.20;75.39
9141;BME280;46330;50.822;7.126;2022-08-07T03:52:26;101823.03;;;11.24;75.45
9141;BME280;46330;50.822;7.126;2022-08-07T03:55:00;101811.69;;;11.22;74.84
9141;BME280;46330;50.822;7.126;2022-08-07T03:57:36;101828.28;;;11.18;75.42
9141;BME280;46330;50.822;7.126;2022-08-07T04:00:32;101815.19;;;11.15;74.86
9141;BME280;46330;50.822;7.126;2022-08-07T04:03:03;101817.81;;;11.12;75.44
9141;BME280;46330;50.822;7.126;2022-08-07T04:05:37;101823.06;;;11.14;75.07
9141;BME280;46330;50.822;7.126;2022-08-07T04:08:18;101821.31;;;11.16;75.78
9141;BME280;46330;50.822;7.126;2022-08-07T04:10:49;101820.47;;;11.08;75.87
9141;BME280;46330;50.822;7.126;2022-08-07T04:13:39;101820.50;;;11.02;75.76
9141;BME280;46330;50.822;7.126;2022-08-07T04:16:29;101813.50;;;10.90;76.89
9141;BME280;46330;50.822;7.126;2022-08-07T04:19:04;101816.13;;;10.98;76.37
9141;BME280;46330;50.822;7.126;2022-08-07T04:21:47;101818.72;;;11.02;76.63
9141;BME280;46330;50.822;7.126;2022-08-07T04:24:27;101823.09;;;11.00;77.65
9141;BME280;46330;50.822;7.126;2022-08-07T04:27:06;101830.94;;;11.03;76.85
9141;BME280;46330;50.822;7.126;2022-08-07T04:29:52;101832.69;;;11.01;77.43
9141;BME280;46330;50.822;7.126;2022-08-07T04:32:48;101830.06;;;10.97;77.67
9141;BME280;46330;50.822;7.126;2022-08-07T04:35:26;101825.72;;;10.96;77.77
9141;BME280;46330;50.822;7.126;2022-08-07T04:38:05;101832.72;;;10.98;78.00
9141;BME280;46330;50.822;7.126;2022-08-07T04:40:39;101831.78;;;11.05;77.84
9141;BME280;46330;50.822;7.126;2022-08-07T04:43:24;101823.94;;;11.17;76.69
9141;BME280;46330;50.822;7.126;2022-08-07T04:46:17;101824.69;;;11.48;76.40
9141;BME280;46330;50.822;7.126;2022-08-07T04:49:11;101834.25;;;11.70;76.02
9141;BME280;46330;50.822;7.126;2022-08-07T04:51:57;101836.88;;;11.57;74.24
9141;BME280;46330;50.822;7.126;2022-08-07T04:54:32;101843.91;;;11.52;74.72
9141;BME280;46330;50.822;7.126;2022-08-07T04:57:10;101849.06;;;11.65;74.19
9141;BME280;46330;50.822;7.126;2022-08-07T05:00:05;101849.03;;;11.77;73.90
9141;BME280;46330;50.822;7.126;2022-08-07T05:02:51;101856.84;;;11.91;73.29
9141;BME280;46330;50.822;7.126;2022-08-07T05:05:29;101855.06;;;11.99;72.71
9141;BME280;46330;50.822;7.126;2022-08-07T05:08:25;101858.41;;;12.25;71.96
9141;BME280;46330;50.822;7.126;2022-08-07T05:11:22;101858.31;;;12.39;70.64
9141;BME280;46330;50.822;7.126;2022-08-07T05:13:59;101859.84;;;12.66;69.19
9141;BME280;46330;50.822;7.126;2022-08-07T05:16:51;101854.13;;;13.19;67.05
9141;BME280;46330;50.822;7.126;2022-08-07T05:19:23;101863.38;;;13.53;66.04
9141;BME280;46330;50.822;7.126;2022-08-07T05:22:14;101859.97;;;13.43;64.77
9141;BME280;46330;50.822;7.126;2022-08-07T05:24:55;101864.19;;;13.58;64.79
9141;BME280;46330;50.822;7.126;2022-08-07T05:27:26;101861.59;;;13.57;64.63
9141;BME280;46330;50.822;7.126;2022-08-07T05:30:15;101867.88;;;13.43;64.18
9141;BME280;46330;50.822;7.126;2022-08-07T05:33:00;101865.94;;;13.59;63.67
9141;BME280;46330;50.822;7.126;2022-08-07T05:35:30;101872.56;;;13.89;62.18
9141;BME280;46330;50.822;7.126;2022-08-07T05:38:11;101862.00;;;13.92;61.97
9141;BME280;46330;50.822;7.126;2022-08-07T05:41:00;101855.66;;;14.05;61.22
9141;BME280;46330;50.822;7.126;2022-08-07T05:43:41;101862.84;;;13.94;61.64
9141;BME280;46330;50.822;7.126;2022-08-07T05:46:32;101861.88;;;14.61;60.45
9141;BME280;46330;50.822;7.126;2022-08-07T05:49:04;101866.94;;;14.74;59.85
9141;BME280;46330;50.822;7.126;2022-08-07T05:51:42;101863.13;;;14.90;59.13
9141;BME280;46330;50.822;7.126;2022-08-07T05:54:15;101864.44;;;15.14;58.05
9141;BME280;46330;50.822;7.126;2022-08-07T05:56:59;101861.81;;;15.62;57.37
9141;BME280;46330;50.822;7.126;2022-08-07T05:59:31;101871.03;;;15.82;56.78
9141;BME280;46330;50.822;7.126;2022-08-07T06:02:26;101873.72;;;15.81;56.37
9141;BME280;46330;50.822;7.126;2022-08-07T06:05:00;101872.97;;;16.16;55.44
9141;BME280;46330;50.822;7.126;2022-08-07T06:07:30;101867.69;;;16.88;53.81
9141;BME280;46330;50.822;7.126;2022-08-07T06:10:22;101868.31;;;16.97;52.92
9141;BME280;46330;50.822;7.126;2022-08-07T06:12:52;101877.53;;;17.47;51.05
9141;BME280;46330;50.822;7.126;2022-08-07T06:15:21;101877.19;;;17.29;51.98
9141;BME280;46330;50.822;7.126;2022-08-07T06:18:11;101883.09;;;18.00;49.99
9141;BME280;46330;50.822;7.126;2022-08-07T06:20:42;101880.13;;;18.40;49.34
9141;BME280;46330;50.822;7.126;2022-08-07T06:23:33;101886.06;;;18.18;49.66
9141;BME280;46330;50.822;7.126;2022-08-07T06:26:24;101888.63;;;18.77;48.17
9141;BME280;46330;50.822;7.126;2022-08-07T06:28:55;101882.75;;;18.94;47.59
9141;BME280;46330;50.822;7.126;2022-08-07T06:31:29;101891.09;;;18.27;48.75
9141;BME280;46330;50.822;7.126;2022-08-07T06:34:16;101886.47;;;18.88;47.50
9141;BME280;46330;50.822;7.126;2022-08-07T06:36:47;101887.97;;;19.21;46.32
9141;BME280;46330;50.822;7.126;2022-08-07T06:39:20;101877.75;;;19.36;45.70
9141;BME280;46330;50.822;7.126;2022-08-07T06:42:14;101879.31;;;19.43;46.63
9141;BME280;46330;50.822;7.126;2022-08-07T06:45:10;101881.00;;;19.92;44.51
9141;BME280;46330;50.822;7.126;2022-08-07T06:47:50;101877.97;;;20.46;43.17
9141;BME280;46330;50.822;7.126;2022-08-07T06:50:31;101883.41;;;20.43;42.81
9141;BME280;46330;50.822;7.126;2022-08-07T06:53:05;101873.66;;;21.27;41.63
9141;BME280;46330;50.822;7.126;2022-08-07T06:55:55;101868.34;;;20.43;41.29
9141;BME280;46330;50.822;7.126;2022-08-07T06:58:34;101874.41;;;20.47;41.35
9141;BME280;46330;50.822;7.126;2022-08-07T07:01:09;101862.91;;;21.10;40.35
9141;BME280;46330;50.822;7.126;2022-08-07T07:03:40;101869.31;;;21.65;38.94
9141;BME280;46330;50.822;7.126;2022-08-07T07:06:24;101867.81;;;22.34;37.81
9141;BME280;46330;50.822;7.126;2022-08-07T07:08:53;101863.75;;;22.08;37.91
9141;BME280;46330;50.822;7.126;2022-08-07T07:11:23;101856.41;;;22.49;36.88
9141;BME280;46330;50.822;7.126;2022-08-07T07:14:14;101857.34;;;22.84;36.26
9141;BME280;46330;50.822;7.126;2022-08-07T07:16:44;101856.94;;;22.74;36.21
9141;BME280;46330;50.822;7.126;2022-08-07T07:19:22;101859.50;;;22.94;35.93
9141;BME280;46330;50.822;7.126;2022-08-07T07:22:12;101850.31;;;23.83;35.21
9141;BME280;46330;50.822;7.126;2022-08-07T07:25:03;101856.25;;;23.72;35.68
9141;BME280;46330;50.822;7.126;2022-08-07T07:27:53;101863.75;;;23.48;34.73
9141;BME280;46330;50.822;7.126;2022-08-07T07:30:34;101862.81;;;23.49;34.44
9141;BME280;46330;50.822;7.126;2022-08-07T07:33:07;101854.97;;;23.95;34.17
9141;BME280;46330;50.822;7.126;2022-08-07T07:35:40;101861.59;;;24.82;32.16
9141;BME280;46330;50.822;7.126;2022-08-07T07:38:30;101852.09;;;25.64;30.72
9141;BME280;46330;50.822;7.126;2022-08-07T07:41:04;101853.50;;;24.97;32.02
9141;BME280;46330;50.822;7.126;2022-08-07T07:43:37;101864.81;;;25.02;32.31
9141;BME280;46330;50.822;7.126;2022-08-07T07:46:30;101848.44;;;25.93;30.14
9141;BME280;46330;50.822;7.126;2022-08-07T07:49:20;101849.59;;;26.57;29.32
9141;BME280;46330;50.822;7.126;2022-08-07T07:52:10;101849.41;;;26.33;29.22
9141;BME280;46330;50.822;7.126;2022-08-07T07:54:42;101842.91;;;26.77;28.86
9141;BME280;46330;50.822;7.126;2022-08-07T07:57:19;101840.56;;;26.85;29.35
9141;BME280;46330;50.822;7.126;2022-08-07T08:00:09;101835.91;;;26.74;28.28
9141;BME280;46330;50.822;7.126;2022-08-07T08:02:49;101827.66;;;26.77;29.17
9141;BME280;46330;50.822;7.126;2022-08-07T08:05:32;101838.69;;;27.37;27.87
9141;BME280;46330;50.822;7.126;2022-08-07T08:08:23;101831.03;;;27.82;27.22
9141;BME280;46330;50.822;7.126;2022-08-07T08:11:04;101836.34;;;28.19;26.47
9141;BME280;46330;50.822;7.126;2022-08-07T08:13:35;101826.16;;;27.87;27.32
9141;BME280;46330;50.822;7.126;2022-08-07T08:16:23;101833.53;;;27.34;28.31
9141;BME280;46330;50.822;7.126;2022-08-07T08:18:59;101826.03;;;28.01;27.70
9141;BME280;46330;50.822;7.126;2022-08-07T08:21:48;101823.06;;;27.93;27.21
9141;BME280;46330;50.822;7.126;2022-08-07T08:24:40;101829.81;;;28.35;26.64
9141;BME280;46330;50.822;7.126;2022-08-07T08:27:49;101821.50;;;28.61;25.37
9141;BME280;46330;50.822;7.126;2022-08-07T08:30:28;101822.88;;;29.02;25.33
9141;BME280;46330;50.822;7.126;2022-08-07T08:33:01;101834.41;;;29.04;25.47
9141;BME280;46330;50.822;7.126;2022-08-07T08:35:42;101824.56;;;29.26;24.90
9141;BME280;46330;50.822;7.126;2022-08-07T08:38:17;101823.03;;;30.11;23.69
9141;BME280;46330;50.822;7.126;2022-08-07T08:40:55;101820.06;;;30.25;23.95
9141;BME280;46330;50.822;7.126;2022-08-07T08:43:33;101816.44;;;29.93;24.63
9141;BME280;46330;50.822;7.126;2022-08-07T08:46:12;101811.56;;;29.98;23.91
9141;BME280;46330;50.822;7.126;2022-08-07T08:48:50;101804.91;;;29.80;24.50
9141;BME280;46330;50.822;7.126;2022-08-07T08:51:26;101816.06;;;30.09;24.88
9141;BME280;46330;50.822;7.126;2022-08-07T08:54:22;101806.06;;;30.20;24.25
9141;BME280;46330;50.822;7.126;2022-08-07T08:56:52;101805.75;;;30.03;23.90
9141;BME280;46330;50.822;7.126;2022-08-07T08:59:26;101801.13;;;28.70;26.28
9141;BME280;46330;50.822;7.126;2022-08-07T09:02:17;101794.75;;;29.28;25.26
9141;BME280;46330;50.822;7.126;2022-08-07T09:05:16;101791.47;;;31.07;22.80
9141;BME280;46330;50.822;7.126;2022-08-07T09:08:09;101794.72;;;30.49;22.38
9141;BME280;46330;50.822;7.126;2022-08-07T09:10:59;101795.16;;;31.57;21.88
9141;BME280;46330;50.822;7.126;2022-08-07T09:13:32;101789.28;;;32.02;21.83
9141;BME280;46330;50.822;7.126;2022-08-07T09:16:07;101789.16;;;31.33;22.90
9141;BME280;46330;50.822;7.126;2022-08-07T09:19:03;101790.25;;;31.81;21.58
9141;BME280;46330;50.822;7.126;2022-08-07T09:22:05;101788.03;;;30.84;22.60
9141;BME280;46330;50.822;7.126;2022-08-07T09:25:04;101792.00;;;31.01;22.00
9141;BME280;46330;50.822;7.126;2022-08-07T09:27:50;101792.84;;;31.02;22.49
9141;BME280;46330;50.822;7.126;2022-08-07T09:30:31;101787.59;;;30.89;22.52
9141;BME280;46330;50.822;7.126;2022-08-07T09:33:05;101785.00;;;30.57;22.64
9141;BME280;46330;50.822;7.126;2022-08-07T09:36:00;101773.38;;;31.28;22.38
9141;BME280;46330;50.822;7.126;2022-08-07T09:38:39;101774.78;;;30.81;22.99
9141;BME280;46330;50.822;7.126;2022-08-07T09:41:29;101773.47;;;30.97;22.65
9141;BME280;46330;50.822;7.126;2022-08-07T09:44:33;101762.75;;;31.46;21.74
9141;BME280;46330;50.822;7.126;2022-08-07T09:47:32;101763.22;;;31.91;21.02
9141;BME280;46330;50.822;7.126;2022-08-07T09:50:31;101757.06;;;31.98;21.00
9141;BME280;46330;50.822;7.126;2022-08-07T09:53:08;101748.25;;;31.17;21.50
9141;BME280;46330;50.822;7.126;2022-08-07T09:55:56;101752.56;;;32.18;20.40
9141;BME280;46330;50.822;7.126;2022-08-07T09:58:56;101744.13;;;31.13;21.46
9141;BME280;46330;50.822;7.126;2022-08-07T10:01:59;101750.13;;;30.54;22.58
9141;BME280;46330;50.822;7.126;2022-08-07T10:04:51;101741.44;;;32.21;20.67
9141;BME280;46330;50.822;7.126;2022-08-07T10:07:56;101738.19;;;32.56;20.49
9141;BME280;46330;50.822;7.126;2022-08-07T10:10:40;101726.66;;;31.26;20.99
9141;BME280;46330;50.822;7.126;2022-08-07T10:13:49;101736.84;;;32.03;20.49
9141;BME280;46330;50.822;7.126;2022-08-07T10:16:57;101729.78;;;33.06;19.42
9141;BME280;46330;50.822;7.126;2022-08-07T10:19:51;101733.84;;;33.66;18.08
9141;BME280;46330;50.822;7.126;2022-08-07T10:25:48;101720.97;;;33.85;18.21
9141;BME280;46330;50.822;7.126;2022-08-07T10:28:36;101717.97;;;34.41;16.86
9141;BME280;46330;50.822;7.126;2022-08-07T10:31:31;101713.31;;;32.80;19.22
9141;BME280;46330;50.822;7.126;2022-08-07T10:34:18;101718.06;;;33.96;17.69
9141;BME280;46330;50.822;7.126;2022-08-07T10:37:05;101722.19;;;32.53;19.33
9141;BME280;46330;50.822;7.126;2022-08-07T10:39:45;101698.97;;;31.43;20.70
9141;BME280;46330;50.822;7.126;2022-08-07T10:42:37;101704.47;;;31.63;20.19
9141;BME280;46330;50.822;7.126;2022-08-07T10:45:16;101701.38;;;31.37;20.91
9141;BME280;46330;50.822;7.126;2022-08-07T10:48:15;101699.94;;;32.49;18.99
9141;BME280;46330;50.822;7.126;2022-08-07T10:50:52;101695.06;;;33.46;18.11
9141;BME280;46330;50.822;7.126;2022-08-07T10:53:27;101694.13;;;33.37;17.70
9141;BME280;46330;50.822;7.126;2022-08-07T10:56:17;101690.44;;;33.29;18.78
9141;BME280;46330;50.822;7.126;2022-08-07T10:59:05;101692.72;;;33.61;18.02
9141;BME280;46330;50.822;7.126;2022-08-07T11:01:45;101688.19;;;34.57;16.91
9141;BME280;46330;50.822;7.126;2022-08-07T11:04:45;101686.06;;;34.43;17.26
9141;BME280;46330;50.822;7.126;2022-08-07T11:07:24;101678.84;;;32.99;19.26
9141;BME280;46330;50.822;7.126;2022-08-07T11:10:22;101678.72;;;35.63;16.28
9141;BME280;46330;50.822;7.126;2022-08-07T11:12:58;101666.59;;;34.82;16.81
9141;BME280;46330;50.822;7.126;2022-08-07T11:15:31;101663.47;;;32.44;18.57
9141;BME280;46330;50.822;7.126;2022-08-07T11:18:05;101660.38;;;34.02;17.66
9141;BME280;46330;50.822;7.126;2022-08-07T11:20:45;101655.94;;;34.88;16.47
9141;BME280;46330;50.822;7.126;2022-08-07T11:23:22;101654.66;;;35.42;16.33
9141;BME280;46330;50.822;7.126;2022-08-07T11:26:08;101651.69;;;34.86;17.54
9141;BME280;46330;50.822;7.126;2022-08-07T11:28:47;101647.38;;;32.79;19.33
9141;BME280;46330;50.822;7.126;2022-08-07T11:31:28;101641.28;;;34.55;16.98
9141;BME280;46330;50.822;7.126;2022-08-07T11:34:07;101643.78;;;34.23;17.78
9141;BME280;46330;50.822;7.126;2022-08-07T11:36:53;101628.69;;;33.40;17.82
9141;BME280;46330;50.822;7.126;2022-08-07T11:39:52;101637.28;;;33.36;18.19
9141;BME280;46330;50.822;7.126;2022-08-07T11:42:38;101634.72;;;32.70;18.74
9141;BME280;46330;50.822;7.126;2022-08-07T11:45:15;101626.53;;;33.44;17.35
9141;BME280;46330;50.822;7.126;2022-08-07T11:48:15;101622.59;;;33.56;17.87
9141;BME280;46330;50.822;7.126;2022-08-07T11:51:15;101629.13;;;33.81;17.53
9141;BME280;46330;50.822;7.126;2022-08-07T11:54:35;101627.75;;;34.12;16.86
9141;BME280;46330;50.822;7.126;2022-08-07T11:57:15;101626.44;;;34.68;16.37
9141;BME280;46330;50.822;7.126;2022-08-07T12:00:10;101621.03;;;34.24;17.24
9141;BME280;46330;50.822;7.126;2022-08-07T12:03:10;101619.44;;;33.78;17.58
9141;BME280;46330;50.822;7.126;2022-08-07T12:06:16;101623.75;;;34.24;16.92
9141;BME280;46330;50.822;7.126;2022-08-07T12:09:08;101612.72;;;34.26;17.01
9141;BME280;46330;50.822;7.126;2022-08-07T12:11:53;101613.44;;;33.92;17.09
9141;BME280;46330;50.822;7.126;2022-08-07T12:14:43;101604.53;;;33.82;17.48
9141;BME280;46330;50.822;7.126;2022-08-07T12:17:31;101606.16;;;34.11;17.76
9141;BME280;46330;50.822;7.126;2022-08-07T12:20:04;101600.41;;;34.14;17.63
9141;BME280;46330;50.822;7.126;2022-08-07T12:23:29;101605.00;;;33.78;18.19
9141;BME280;46330;50.822;7.126;2022-08-07T12:26:25;101603.66;;;34.43;17.72
9141;BME280;46330;50.822;7.126;2022-08-07T12:29:04;101603.63;;;35.36;17.24
9141;BME280;46330;50.822;7.126;2022-08-07T12:31:37;101595.94;;;35.24;17.33
9141;BME280;46330;50.822;7.126;2022-08-07T12:34:28;101591.91;;;35.02;17.23
9141;BME280;46330;50.822;7.126;2022-08-07T12:36:58;101596.81;;;34.90;16.07
9141;BME280;46330;50.822;7.126;2022-08-07T12:39:35;101584.38;;;34.88;17.58
9141;BME280;46330;50.822;7.126;2022-08-07T12:42:11;101592.56;;;34.96;17.04
9141;BME280;46330;50.822;7.126;2022-08-07T12:44:44;101591.56;;;34.12;17.38
9141;BME280;46330;50.822;7.126;2022-08-07T12:47:21;101590.66;;;33.68;18.00
9141;BME280;46330;50.822;7.126;2022-08-07T12:50:02;101583.25;;;33.25;17.90
9141;BME280;46330;50.822;7.126;2022-08-07T12:52:58;101575.03;;;33.07;17.82
9141;BME280;46330;50.822;7.126;2022-08-07T12:55:46;101579.59;;;34.04;17.44
9141;BME280;46330;50.822;7.126;2022-08-07T12:58:32;101582.41;;;33.42;17.54
9141;BME280;46330;50.822;7.126;2022-08-07T13:01:16;101575.19;;;33.50;17.56
9141;BME280;46330;50.822;7.126;2022-08-07T13:04:01;101569.97;;;34.10;16.81
9141;BME280;46330;50.822;7.126;2022-08-07T13:06:51;101565.03;;;33.08;18.68
9141;BME280;46330;50.822;7.126;2022-08-07T13:09:45;101563.25;;;33.96;17.81
9141;BME280;46330;50.822;7.126;2022-08-07T13:12:48;101564.88;;;33.54;18.11
9141;BME280;46330;50.822;7.126;2022-08-07T13:15:25;101553.94;;;32.56;18.29
9141;BME280;46330;50.822;7.126;2022-08-07T13:18:10;101559.59;;;32.90;18.89
9141;BME280;46330;50.822;7.126;2022-08-07T13:20:56;101553.63;;;32.49;18.77
9141;BME280;46330;50.822;7.126;2022-08-07T13:23:34;101545.03;;;32.54;19.22
9141;BME280;46330;50.822;7.126;2022-08-07T13:26:29;101553.16;;;32.64;19.01
9141;BME280;46330;50.822;7.126;2022-08-07T13:29:00;101542.38;;;32.44;19.18
9141;BME280;46330;50.822;7.126;2022-08-07T13:31:37;101537.25;;;33.94;17.69
9141;BME280;46330;50.822;7.126;2022-08-07T13:34:34;101535.41;;;33.41;18.08
9141;BME280;46330;50.822;7.126;2022-08-07T13:37:09;101540.44;;;32.91;18.92
9141;BME280;46330;50.822;7.126;2022-08-07T13:39:51;101537.44;;;32.94;18.74
9141;BME280;46330;50.822;7.126;2022-08-07T13:42:43;101530.41;;;32.57;19.06
9141;BME280;46330;50.822;7.126;2022-08-07T13:45:14;101523.34;;;32.54;19.04
9141;BME280;46330;50.822;7.126;2022-08-07T13:48:06;101518.78;;;33.19;18.19
9141;BME280;46330;50.822;7.126;2022-08-07T13:50:55;101525.19;;;33.18;17.71
9141;BME280;46330;50.822;7.126;2022-08-07T13:53:29;101522.09;;;32.48;19.09
9141;BME280;46330;50.822;7.126;2022-08-07T13:56:21;101521.03;;;32.96;18.90
9141;BME280;46330;50.822;7.126;2022-08-07T13:59:10;101509.53;;;33.47;18.06
9141;BME280;46330;50.822;7.126;2022-08-07T14:01:44;101515.31;;;32.99;17.84
9141;BME280;46330;50.822;7.126;2022-08-07T14:04:30;101506.84;;;32.84;18.50
9141;BME280;46330;50.822;7.126;2022-08-07T14:07:07;101495.34;;;33.96;18.03
9141;BME280;46330;50.822;7.126;2022-08-07T14:09:38;101504.44;;;31.88;19.96
9141;BME280;46330;50.822;7.126;2022-08-07T14:12:33;101499.09;;;31.79;19.39
9141;BME280;46330;50.822;7.126;2022-08-07T14:15:16;101504.06;;;31.45;19.87
9141;BME280;46330;50.822;7.126;2022-08-07T14:17:51;101501.25;;;31.66;19.93
9141;BME280;46330;50.822;7.126;2022-08-07T14:20:43;101494.97;;;31.75;20.13